sensor_id;sensor_type;location;lat;lon;timestamp;P1;durP1;ratioP1;P2;durP2;ratioP2
14326;SDS011;7247;53.330;-1.180;2024-01-15T00:00:23;3.73;;;1.50;;
14326;SDS011;7247;53.330;-1.180;2024-01-15T00:02:49;2.00;;;1.43;;
14326;SDS011;7247;53.330;-1.180;2024-01-15T00:05:17;3.13;;;1.50;;
14326;SDS011;7247;53.330;-1.180;2024-01-15T00:07:43;4.13;;;1.50;;
14326;SDS011;7247;53.330;-1.180;2024-01-15T00:10:10;3.27;;;1.90;;
14326;SDS011;7247;53.330;-1.180;2024-01-15T00:12:36;2.90;;;1.80;;
14326;SDS011;7247;53.330;-1.180;2024-01-15T00:15:03;2.87;;;1.53;;
14326;SDS011;7247;53.330;-1.180;2024-01-15T00:17:30;2.70;;;1.23;;
14326;SDS011;7247;53.330;-1.180;2024-01-15T00:19:56;5.93;;;1.50;;
14326;SDS011;7247;53.330;-1.180;2024-01-15T00:22:25;4.33;;;1.30;;
14326;SDS011;7247;53.330;-1.180;2024-01-15T00:24:51;1.33;;;1.20;;
14326;SDS011;7247;53.330;-1.180;2024-01-15T00:27:18;2.30;;;1.23;;
14326;SDS011;7247;53.330;-1.180;2024-01-15T00:29:44;3.63;;;1.40;;
14326;SDS011;7247;53.330;-1.180;2024-01-15T00:32:10;2.30;;;1.40;;
14326;SDS011;7247;53.330;-1.180;2024-01-15T00:34:37;1.90;;;1.50;;
14326;SDS011;7247;53.330;-1.180;2024-01-15T00:37:03;2.10;;;1.60;;
14326;SDS011;7247;53.330;-1.180;2024-01-15T00:39:33;4.50;;;1.37;;
14326;SDS011;7247;53.330;-1.180;2024-01-15T00:42:00;3.83;;;1.30;;
14326;SDS011;7247;53.330;-1.180;2024-01-15T00:44:27;2.10;;;1.40;;
14326;SDS011;7247;53.330;-1.180;2024-01-15T00:46:53;2.90;;;1.37;;
14326;SDS011;7247;53.330;-1.180;2024-01-15T00:49:19;2.40;;;1.53;;
14326;SDS011;7247;53.330;-1.180;2024-01-15T00:51:46;2.37;;;1.30;;
14326;SDS011;7247;53.330;-1.180;2024-01-15T00:54:13;4.03;;;1.40;;
14326;SDS011;7247;53.330;-1.180;2024-01-15T00:56:41;1.53;;;1.20;;
14326;SDS011;7247;53.330;-1.180;2024-01-15T00:59:07;3.10;;;1.20;;
14326;SDS011;7247;53.330;-1.180;2024-01-15T01:01:35;4.53;;;1.37;;
14326;SDS011;7247;53.330;-1.180;2024-01-15T01:04:03;2.53;;;1.00;;
14326;SDS011;7247;53.330;-1.180;2024-01-15T01:06:29;4.93;;;1.53;;
14326;SDS011;7247;53.330;-1.180;2024-01-15T01:08:56;3.00;;;1.17;;
14326;SDS011;7247;53.330;-1.180;2024-01-15T01:11:22;3.40;;;1.30;;
14326;SDS011;7247;53.330;-1.180;2024-01-15T01:13:50;1.87;;;1.00;;
14326;SDS011;7247;53.330;-1.180;2024-01-15T01:16:16;4.37;;;1.33;;
14326;SDS011;7247;53.330;-1.180;2024-01-15T01:18:43;4.00;;;1.40;;
14326;SDS011;7247;53.330;-1.180;2024-01-15T01:21:09;1.73;;;0.97;;
14326;SDS011;7247;53.330;-1.180;2024-01-15T01:23:36;1.37;;;0.90;;
14326;SDS011;7247;53.330;-1.180;2024-01-15T01:26:02;2.30;;;1.33;;
14326;SDS011;7247;53.330;-1.180;2024-01-15T01:28:29;2.20;;;1.20;;
14326;SDS011;7247;53.330;-1.180;2024-01-15T01:30:56;2.13;;;1.10;;
14326;SDS011;7247;53.330;-1.180;2024-01-15T01:33:23;2.70;;;1.20;;
14326;SDS011;7247;53.330;-1.180;2024-01-15T01:35:49;5.10;;;1.93;;
14326;SDS011;7247;53.330;-1.180;2024-01-15T01:38:16;4.27;;;1.27;;
14326;SDS011;7247;53.330;-1.180;2024-01-15T01:40:42;2.70;;;1.20;;
14326;SDS011;7247;53.330;-1.180;2024-01-15T01:43:09;3.37;;;1.30;;
14326;SDS011;7247;53.330;-1.180;2024-01-15T01:45:35;5.17;;;1.37;;
14326;SDS011;7247;53.330;-1.180;2024-01-15T01:48:04;2.57;;;1.37;;
14326;SDS011;7247;53.330;-1.180;2024-01-15T01:50:30;1.40;;;0.93;;
14326;SDS011;7247;53.330;-1.180;2024-01-15T01:52:57;2.13;;;1.20;;
14326;SDS011;7247;53.330;-1.180;2024-01-15T01:55:24;4.03;;;1.30;;
14326;SDS011;7247;53.330;-1.180;2024-01-15T01:57:52;6.17;;;1.50;;
14326;SDS011;7247;53.330;-1.180;2024-01-15T02:00:19;3.13;;;1.10;;
14326;SDS011;7247;53.330;-1.180;2024-01-15T02:02:46;1.73;;;1.30;;
14326;SDS011;7247;53.330;-1.180;2024-01-15T02:05:14;2.97;;;1.20;;
14326;SDS011;7247;53.330;-1.180;2024-01-15T02:07:44;3.67;;;1.20;;
14326;SDS011;7247;53.330;-1.180;2024-01-15T02:10:10;1.83;;;1.20;;
14326;SDS011;7247;53.330;-1.180;2024-01-15T02:12:37;2.50;;;1.37;;
14326;SDS011;7247;53.330;-1.180;2024-01-15T02:15:04;3.43;;;1.20;;
14326;SDS011;7247;53.330;-1.180;2024-01-15T02:17:30;2.83;;;1.40;;
14326;SDS011;7247;53.330;-1.180;2024-01-15T02:19:57;2.53;;;1.27;;
14326;SDS011;7247;53.330;-1.180;2024-01-15T02:22:24;3.17;;;1.30;;
14326;SDS011;7247;53.330;-1.180;2024-01-15T02:24:52;2.57;;;1.10;;
14326;SDS011;7247;53.330;-1.180;2024-01-15T02:27:19;2.60;;;1.20;;
14326;SDS011;7247;53.330;-1.180;2024-01-15T02:29:46;3.87;;;1.10;;
14326;SDS011;7247;53.330;-1.180;2024-01-15T02:32:13;3.00;;;1.30;;
14326;SDS011;7247;53.330;-1.180;2024-01-15T02:34:39;1.93;;;1.10;;
14326;SDS011;7247;53.330;-1.180;2024-01-15T02:37:06;2.07;;;1.20;;
14326;SDS011;7247;53.330;-1.180;2024-01-15T02:39:32;3.37;;;1.10;;
14326;SDS011;7247;53.330;-1.180;2024-01-15T02:42:00;3.43;;;1.30;;
14326;SDS011;7247;53.330;-1.180;2024-01-15T02:44:26;7.43;;;1.13;;
14326;SDS011;7247;53.330;-1.180;2024-01-15T02:46:53;3.30;;;1.10;;
14326;SDS011;7247;53.330;-1.180;2024-01-15T02:49:19;1.57;;;0.80;;
14326;SDS011;7247;53.330;-1.180;2024-01-15T02:51:46;1.97;;;1.00;;
14326;SDS011;7247;53.330;-1.180;2024-01-15T02:54:13;1.20;;;0.97;;
14326;SDS011;7247;53.330;-1.180;2024-01-15T02:56:39;1.87;;;0.83;;
14326;SDS011;7247;53.330;-1.180;2024-01-15T02:59:07;2.77;;;0.87;;
14326;SDS011;7247;53.330;-1.180;2024-01-15T03:01:33;1.03;;;0.90;;
14326;SDS011;7247;53.330;-1.180;2024-01-15T03:04:00;3.03;;;1.30;;
14326;SDS011;7247;53.330;-1.180;2024-01-15T03:06:26;3.00;;;0.90;;
14326;SDS011;7247;53.330;-1.180;2024-01-15T03:08:53;5.30;;;1.23;;
14326;SDS011;7247;53.330;-1.180;2024-01-15T03:11:19;1.77;;;0.90;;
14326;SDS011;7247;53.330;-1.180;2024-01-15T03:13:45;2.30;;;0.90;;
14326;SDS011;7247;53.330;-1.180;2024-01-15T03:16:13;1.33;;;0.87;;
14326;SDS011;7247;53.330;-1.180;2024-01-15T03:18:40;3.97;;;1.03;;
14326;SDS011;7247;53.330;-1.180;2024-01-15T03:21:06;2.77;;;0.90;;
14326;SDS011;7247;53.330;-1.180;2024-01-15T03:23:33;2.07;;;0.87;;
14326;SDS011;7247;53.330;-1.180;2024-01-15T03:26:00;2.83;;;1.00;;
14326;SDS011;7247;53.330;-1.180;2024-01-15T03:28:26;1.40;;;1.00;;
14326;SDS011;7247;53.330;-1.180;2024-01-15T03:30:55;3.23;;;1.20;;
14326;SDS011;7247;53.330;-1.180;2024-01-15T03:33:23;5.30;;;1.20;;
14326;SDS011;7247;53.330;-1.180;2024-01-15T03:35:49;3.13;;;1.00;;
14326;SDS011;7247;53.330;-1.180;2024-01-15T03:38:16;4.63;;;1.00;;
14326;SDS011;7247;53.330;-1.180;2024-01-15T03:40:42;3.40;;;0.90;;
14326;SDS011;7247;53.330;-1.180;2024-01-15T03:43:09;1.60;;;1.10;;
14326;SDS011;7247;53.330;-1.180;2024-01-15T03:45:35;3.60;;;1.10;;
14326;SDS011;7247;53.330;-1.180;2024-01-15T03:48:02;4.53;;;0.97;;
14326;SDS011;7247;53.330;-1.180;2024-01-15T03:50:29;1.50;;;0.93;;
14326;SDS011;7247;53.330;-1.180;2024-01-15T03:52:56;3.20;;;1.03;;
14326;SDS011;7247;53.330;-1.180;2024-01-15T03:55:22;2.23;;;0.90;;
14326;SDS011;7247;53.330;-1.180;2024-01-15T03:57:49;2.57;;;0.90;;
14326;SDS011;7247;53.330;-1.180;2024-01-15T04:00:16;3.77;;;1.10;;
14326;SDS011;7247;53.330;-1.180;2024-01-15T04:02:42;0.80;;;0.70;;
14326;SDS011;7247;53.330;-1.180;2024-01-15T04:05:09;3.33;;;1.00;;
14326;SDS011;7247;53.330;-1.180;2024-01-15T04:07:37;1.70;;;0.90;;
14326;SDS011;7247;53.330;-1.180;2024-01-15T04:10:03;2.80;;;0.87;;
14326;SDS011;7247;53.330;-1.180;2024-01-15T04:12:31;2.97;;;0.70;;
14326;SDS011;7247;53.330;-1.180;2024-01-15T04:14:57;1.50;;;0.70;;
14326;SDS011;7247;53.330;-1.180;2024-01-15T04:17:23;2.33;;;0.93;;
14326;SDS011;7247;53.330;-1.180;2024-01-15T04:19:50;3.63;;;0.87;;
14326;SDS011;7247;53.330;-1.180;2024-01-15T04:22:16;1.10;;;0.77;;
14326;SDS011;7247;53.330;-1.180;2024-01-15T04:24:44;1.37;;;0.60;;
14326;SDS011;7247;53.330;-1.180;2024-01-15T04:27:11;1.03;;;0.70;;
14326;SDS011;7247;53.330;-1.180;2024-01-15T04:29:37;2.37;;;0.70;;
14326;SDS011;7247;53.330;-1.180;2024-01-15T04:32:04;4.00;;;0.90;;
14326;SDS011;7247;53.330;-1.180;2024-01-15T04:34:31;1.07;;;0.60;;
14326;SDS011;7247;53.330;-1.180;2024-01-15T04:36:58;1.47;;;0.60;;
14326;SDS011;7247;53.330;-1.180;2024-01-15T04:39:24;1.87;;;1.10;;
14326;SDS011;7247;53.330;-1.180;2024-01-15T04:41:52;2.10;;;0.70;;
14326;SDS011;7247;53.330;-1.180;2024-01-15T04:44:19;1.00;;;0.60;;
14326;SDS011;7247;53.330;-1.180;2024-01-15T04:46:45;2.00;;;0.80;;
14326;SDS011;7247;53.330;-1.180;2024-01-15T04:49:11;1.50;;;0.63;;
14326;SDS011;7247;53.330;-1.180;2024-01-15T04:51:38;1.90;;;0.70;;
14326;SDS011;7247;53.330;-1.180;2024-01-15T04:54:04;2.17;;;0.70;;
14326;SDS011;7247;53.330;-1.180;2024-01-15T04:56:31;2.97;;;0.73;;
14326;SDS011;7247;53.330;-1.180;2024-01-15T04:58:59;2.80;;;0.90;;
14326;SDS011;7247;53.330;-1.180;2024-01-15T05:01:25;2.60;;;0.80;;
14326;SDS011;7247;53.330;-1.180;2024-01-15T05:03:51;0.60;;;0.60;;
14326;SDS011;7247;53.330;-1.180;2024-01-15T05:06:18;2.87;;;0.77;;
14326;SDS011;7247;53.330;-1.180;2024-01-15T05:08:44;0.63;;;0.50;;
14326;SDS011;7247;53.330;-1.180;2024-01-15T05:11:11;2.20;;;0.77;;
14326;SDS011;7247;53.330;-1.180;2024-01-15T05:13:37;3.57;;;1.10;;
14326;SDS011;7247;53.330;-1.180;2024-01-15T05:16:05;0.63;;;0.53;;
14326;SDS011;7247;53.330;-1.180;2024-01-15T05:18:32;4.03;;;0.97;;
14326;SDS011;7247;53.330;-1.180;2024-01-15T05:20:58;2.27;;;0.70;;
14326;SDS011;7247;53.330;-1.180;2024-01-15T05:23:25;0.83;;;0.73;;
14326;SDS011;7247;53.330;-1.180;2024-01-15T05:25:51;4.00;;;0.83;;
14326;SDS011;7247;53.330;-1.180;2024-01-15T05:28:17;1.87;;;1.00;;
14326;SDS011;7247;53.330;-1.180;2024-01-15T05:30:44;3.30;;;0.77;;
14326;SDS011;7247;53.330;-1.180;2024-01-15T05:33:12;0.97;;;0.67;;
14326;SDS011;7247;53.330;-1.180;2024-01-15T05:35:38;2.57;;;0.70;;
14326;SDS011;7247;53.330;-1.180;2024-01-15T05:38:05;2.27;;;0.80;;
14326;SDS011;7247;53.330;-1.180;2024-01-15T05:40:31;1.43;;;0.70;;
14326;SDS011;7247;53.330;-1.180;2024-01-15T05:42:58;1.43;;;0.80;;
14326;SDS011;7247;53.330;-1.180;2024-01-15T05:45:25;1.33;;;0.73;;
14326;SDS011;7247;53.330;-1.180;2024-01-15T05:47:52;0.73;;;0.60;;
14326;SDS011;7247;53.330;-1.180;2024-01-15T05:50:20;1.33;;;0.53;;
14326;SDS011;7247;53.330;-1.180;2024-01-15T05:52:46;1.30;;;0.60;;
14326;SDS011;7247;53.330;-1.180;2024-01-15T05:55:13;2.47;;;0.80;;
14326;SDS011;7247;53.330;-1.180;2024-01-15T05:57:39;2.20;;;0.77;;
14326;SDS011;7247;53.330;-1.180;2024-01-15T06:00:06;1.53;;;0.53;;
14326;SDS011;7247;53.330;-1.180;2024-01-15T06:02:33;0.63;;;0.40;;
14326;SDS011;7247;53.330;-1.180;2024-01-15T06:05:00;1.40;;;0.73;;
14326;SDS011;7247;53.330;-1.180;2024-01-15T06:07:29;1.37;;;0.50;;
14326;SDS011;7247;53.330;-1.180;2024-01-15T06:09:55;0.67;;;0.60;;
14326;SDS011;7247;53.330;-1.180;2024-01-15T06:12:22;1.50;;;0.60;;
14326;SDS011;7247;53.330;-1.180;2024-01-15T06:14:49;2.00;;;0.70;;
14326;SDS011;7247;53.330;-1.180;2024-01-15T06:17:15;0.90;;;0.50;;
14326;SDS011;7247;53.330;-1.180;2024-01-15T06:19:41;2.53;;;0.63;;
14326;SDS011;7247;53.330;-1.180;2024-01-15T06:22:08;3.13;;;0.77;;
14326;SDS011;7247;53.330;-1.180;2024-01-15T06:24:36;3.07;;;0.90;;
14326;SDS011;7247;53.330;-1.180;2024-01-15T06:27:02;0.93;;;0.40;;
14326;SDS011;7247;53.330;-1.180;2024-01-15T06:29:29;1.37;;;0.63;;
14326;SDS011;7247;53.330;-1.180;2024-01-15T06:31:56;2.47;;;0.70;;
14326;SDS011;7247;53.330;-1.180;2024-01-15T06:34:22;1.00;;;0.70;;
14326;SDS011;7247;53.330;-1.180;2024-01-15T06:36:49;3.47;;;0.87;;
14326;SDS011;7247;53.330;-1.180;2024-01-15T06:39:15;1.27;;;0.80;;
14326;SDS011;7247;53.330;-1.180;2024-01-15T06:41:43;3.10;;;0.80;;
14326;SDS011;7247;53.330;-1.180;2024-01-15T06:44:09;4.93;;;0.67;;
14326;SDS011;7247;53.330;-1.180;2024-01-15T06:46:36;0.60;;;0.47;;
14326;SDS011;7247;53.330;-1.180;2024-01-15T06:49:02;1.77;;;0.60;;
14326;SDS011;7247;53.330;-1.180;2024-01-15T06:51:29;1.37;;;0.67;;
14326;SDS011;7247;53.330;-1.180;2024-01-15T06:53:55;3.70;;;0.70;;
14326;SDS011;7247;53.330;-1.180;2024-01-15T06:56:22;2.23;;;0.63;;
14326;SDS011;7247;53.330;-1.180;2024-01-15T06:58:50;1.20;;;0.53;;
14326;SDS011;7247;53.330;-1.180;2024-01-15T07:01:16;1.47;;;0.40;;
14326;SDS011;7247;53.330;-1.180;2024-01-15T07:03:43;0.93;;;0.60;;
14326;SDS011;7247;53.330;-1.180;2024-01-15T07:06:10;1.60;;;0.67;;
14326;SDS011;7247;53.330;-1.180;2024-01-15T07:08:36;3.23;;;0.73;;
14326;SDS011;7247;53.330;-1.180;2024-01-15T07:11:03;2.77;;;1.23;;
14326;SDS011;7247;53.330;-1.180;2024-01-15T07:13:29;1.80;;;0.60;;
14326;SDS011;7247;53.330;-1.180;2024-01-15T07:15:57;2.47;;;0.90;;
14326;SDS011;7247;53.330;-1.180;2024-01-15T07:18:24;0.83;;;0.60;;
14326;SDS011;7247;53.330;-1.180;2024-01-15T07:20:51;2.70;;;0.83;;
14326;SDS011;7247;53.330;-1.180;2024-01-15T07:23:17;2.13;;;0.80;;
14326;SDS011;7247;53.330;-1.180;2024-01-15T07:25:43;2.27;;;0.97;;
14326;SDS011;7247;53.330;-1.180;2024-01-15T07:28:10;1.80;;;1.10;;
14326;SDS011;7247;53.330;-1.180;2024-01-15T07:30:36;3.90;;;0.90;;
14326;SDS011;7247;53.330;-1.180;2024-01-15T07:33:05;0.70;;;0.57;;
14326;SDS011;7247;53.330;-1.180;2024-01-15T07:35:32;5.87;;;0.80;;
14326;SDS011;7247;53.330;-1.180;2024-01-15T07:37:58;2.83;;;0.90;;
14326;SDS011;7247;53.330;-1.180;2024-01-15T07:40:25;1.20;;;0.80;;
14326;SDS011;7247;53.330;-1.180;2024-01-15T07:42:51;4.73;;;1.10;;
14326;SDS011;7247;53.330;-1.180;2024-01-15T07:45:17;4.40;;;1.10;;
14326;SDS011;7247;53.330;-1.180;2024-01-15T07:47:44;2.03;;;1.00;;
14326;SDS011;7247;53.330;-1.180;2024-01-15T07:50:12;1.53;;;0.90;;
14326;SDS011;7247;53.330;-1.180;2024-01-15T07:52:38;1.40;;;0.67;;
14326;SDS011;7247;53.330;-1.180;2024-01-15T07:55:07;2.67;;;1.00;;
14326;SDS011;7247;53.330;-1.180;2024-01-15T07:57:33;1.43;;;0.70;;
14326;SDS011;7247;53.330;-1.180;2024-01-15T08:00:00;1.33;;;1.00;;
14326;SDS011;7247;53.330;-1.180;2024-01-15T08:02:30;1.87;;;0.93;;
14326;SDS011;7247;53.330;-1.180;2024-01-15T08:04:57;1.73;;;0.80;;
14326;SDS011;7247;53.330;-1.180;2024-01-15T08:07:25;1.77;;;1.17;;
14326;SDS011;7247;53.330;-1.180;2024-01-15T08:09:51;5.70;;;0.90;;
14326;SDS011;7247;53.330;-1.180;2024-01-15T08:12:18;2.43;;;0.87;;
14326;SDS011;7247;53.330;-1.180;2024-01-15T08:14:44;2.97;;;1.20;;
14326;SDS011;7247;53.330;-1.180;2024-01-15T08:17:11;4.20;;;0.90;;
14326;SDS011;7247;53.330;-1.180;2024-01-15T08:19:37;4.20;;;0.87;;
14326;SDS011;7247;53.330;-1.180;2024-01-15T08:22:06;1.77;;;0.90;;
14326;SDS011;7247;53.330;-1.180;2024-01-15T08:24:34;2.63;;;0.83;;
14326;SDS011;7247;53.330;-1.180;2024-01-15T08:27:00;4.30;;;1.37;;
14326;SDS011;7247;53.330;-1.180;2024-01-15T08:29:26;3.60;;;1.20;;
14326;SDS011;7247;53.330;-1.180;2024-01-15T08:31:53;2.40;;;0.97;;
14326;SDS011;7247;53.330;-1.180;2024-01-15T08:34:20;5.33;;;1.10;;
14326;SDS011;7247;53.330;-1.180;2024-01-15T08:36:46;4.70;;;1.10;;
14326;SDS011;7247;53.330;-1.180;2024-01-15T08:39:13;2.73;;;1.13;;
14326;SDS011;7247;53.330;-1.180;2024-01-15T08:41:40;3.10;;;1.27;;
14326;SDS011;7247;53.330;-1.180;2024-01-15T08:44:07;5.93;;;1.20;;
14326;SDS011;7247;53.330;-1.180;2024-01-15T08:46:33;1.43;;;0.93;;
14326;SDS011;7247;53.330;-1.180;2024-01-15T08:49:00;2.93;;;1.37;;
14326;SDS011;7247;53.330;-1.180;2024-01-15T08:51:26;2.37;;;1.17;;
14326;SDS011;7247;53.330;-1.180;2024-01-15T08:53:53;5.47;;;1.40;;
14326;SDS011;7247;53.330;-1.180;2024-01-15T08:56:19;2.50;;;1.53;;
14326;SDS011;7247;53.330;-1.180;2024-01-15T08:58:47;2.83;;;1.20;;
14326;SDS011;7247;53.330;-1.180;2024-01-15T09:01:14;3.13;;;1.10;;
14326;SDS011;7247;53.330;-1.180;2024-01-15T09:03:40;2.70;;;1.40;;
14326;SDS011;7247;53.330;-1.180;2024-01-15T09:06:07;3.43;;;1.30;;
14326;SDS011;7247;53.330;-1.180;2024-01-15T09:08:34;2.30;;;1.03;;
14326;SDS011;7247;53.330;-1.180;2024-01-15T09:11:01;4.77;;;1.17;;
14326;SDS011;7247;53.330;-1.180;2024-01-15T09:13:28;3.30;;;1.10;;
14326;SDS011;7247;53.330;-1.180;2024-01-15T09:15:57;4.37;;;1.53;;
14326;SDS011;7247;53.330;-1.180;2024-01-15T09:18:24;4.80;;;1.30;;
14326;SDS011;7247;53.330;-1.180;2024-01-15T09:20:50;4.80;;;1.00;;
14326;SDS011;7247;53.330;-1.180;2024-01-15T09:23:17;1.63;;;0.90;;
14326;SDS011;7247;53.330;-1.180;2024-01-15T09:25:43;4.40;;;1.40;;
14326;SDS011;7247;53.330;-1.180;2024-01-15T09:28:09;1.93;;;1.30;;
14326;SDS011;7247;53.330;-1.180;2024-01-15T09:30:36;3.73;;;1.43;;
14326;SDS011;7247;53.330;-1.180;2024-01-15T09:33:04;4.63;;;1.13;;
14326;SDS011;7247;53.330;-1.180;2024-01-15T09:35:31;3.40;;;1.20;;
14326;SDS011;7247;53.330;-1.180;2024-01-15T09:37:57;4.43;;;1.13;;
14326;SDS011;7247;53.330;-1.180;2024-01-15T09:40:24;2.40;;;1.20;;
14326;SDS011;7247;53.330;-1.180;2024-01-15T09:42:51;5.50;;;1.40;;
14326;SDS011;7247;53.330;-1.180;2024-01-15T09:45:18;11.03;;;1.30;;
14326;SDS011;7247;53.330;-1.180;2024-01-15T09:47:45;5.07;;;1.10;;
14326;SDS011;7247;53.330;-1.180;2024-01-15T09:50:12;2.73;;;1.20;;
14326;SDS011;7247;53.330;-1.180;2024-01-15T09:52:39;2.73;;;1.10;;
14326;SDS011;7247;53.330;-1.180;2024-01-15T09:55:07;3.17;;;1.10;;
14326;SDS011;7247;53.330;-1.180;2024-01-15T09:57:34;2.80;;;0.97;;
14326;SDS011;7247;53.330;-1.180;2024-01-15T10:00:01;2.47;;;1.00;;
14326;SDS011;7247;53.330;-1.180;2024-01-15T10:02:30;3.00;;;1.20;;
14326;SDS011;7247;53.330;-1.180;2024-01-15T10:04:56;3.47;;;1.27;;
14326;SDS011;7247;53.330;-1.180;2024-01-15T10:07:24;1.57;;;0.90;;
14326;SDS011;7247;53.330;-1.180;2024-01-15T10:09:53;4.07;;;1.33;;
14326;SDS011;7247;53.330;-1.180;2024-01-15T10:12:20;6.17;;;1.30;;
14326;SDS011;7247;53.330;-1.180;2024-01-15T10:14:47;2.93;;;1.27;;
14326;SDS011;7247;53.330;-1.180;2024-01-15T10:17:14;1.23;;;0.73;;
14326;SDS011;7247;53.330;-1.180;2024-01-15T10:19:41;4.43;;;1.37;;
14326;SDS011;7247;53.330;-1.180;2024-01-15T10:22:07;2.30;;;1.00;;
14326;SDS011;7247;53.330;-1.180;2024-01-15T10:24:36;2.20;;;1.30;;
14326;SDS011;7247;53.330;-1.180;2024-01-15T10:27:06;2.20;;;1.00;;
14326;SDS011;7247;53.330;-1.180;2024-01-15T10:29:33;3.10;;;1.30;;
14326;SDS011;7247;53.330;-1.180;2024-01-15T10:31:59;2.53;;;1.40;;
14326;SDS011;7247;53.330;-1.180;2024-01-15T10:34:26;2.37;;;1.33;;
14326;SDS011;7247;53.330;-1.180;2024-01-15T10:36:52;2.10;;;1.10;;
14326;SDS011;7247;53.330;-1.180;2024-01-15T10:39:20;4.77;;;1.30;;
14326;SDS011;7247;53.330;-1.180;2024-01-15T10:41:48;2.87;;;1.20;;
14326;SDS011;7247;53.330;-1.180;2024-01-15T10:44:16;2.47;;;1.13;;
14326;SDS011;7247;53.330;-1.180;2024-01-15T10:46:42;4.20;;;1.40;;
14326;SDS011;7247;53.330;-1.180;2024-01-15T10:49:10;4.30;;;1.33;;
14326;SDS011;7247;53.330;-1.180;2024-01-15T10:51:37;3.07;;;1.10;;
14326;SDS011;7247;53.330;-1.180;2024-01-15T10:54:04;6.47;;;1.30;;
14326;SDS011;7247;53.330;-1.180;2024-01-15T10:56:30;2.47;;;1.00;;
14326;SDS011;7247;53.330;-1.180;2024-01-15T10:58:59;1.50;;;0.83;;
14326;SDS011;7247;53.330;-1.180;2024-01-15T11:01:25;3.10;;;1.20;;
14326;SDS011;7247;53.330;-1.180;2024-01-15T11:03:52;3.80;;;1.30;;
14326;SDS011;7247;53.330;-1.180;2024-01-15T11:06:22;3.63;;;1.40;;
14326;SDS011;7247;53.330;-1.180;2024-01-15T11:08:50;4.50;;;1.47;;
14326;SDS011;7247;53.330;-1.180;2024-01-15T11:11:17;5.07;;;1.17;;
14326;SDS011;7247;53.330;-1.180;2024-01-15T11:13:43;2.53;;;1.10;;
14326;SDS011;7247;53.330;-1.180;2024-01-15T11:16:11;4.10;;;1.13;;
14326;SDS011;7247;53.330;-1.180;2024-01-15T11:18:39;3.53;;;1.57;;
14326;SDS011;7247;53.330;-1.180;2024-01-15T11:21:22;2.80;;;1.10;;
14326;SDS011;7247;53.330;-1.180;2024-01-15T11:23:50;2.20;;;1.20;;
14326;SDS011;7247;53.330;-1.180;2024-01-15T11:26:26;3.77;;;1.07;;
14326;SDS011;7247;53.330;-1.180;2024-01-15T11:28:54;2.53;;;1.10;;
14326;SDS011;7247;53.330;-1.180;2024-01-15T11:31:25;2.67;;;1.20;;
14326;SDS011;7247;53.330;-1.180;2024-01-15T11:33:51;3.93;;;1.30;;
14326;SDS011;7247;53.330;-1.180;2024-01-15T11:36:18;3.10;;;1.20;;
14326;SDS011;7247;53.330;-1.180;2024-01-15T11:38:44;3.13;;;0.93;;
14326;SDS011;7247;53.330;-1.180;2024-01-15T11:41:13;6.90;;;1.37;;
14326;SDS011;7247;53.330;-1.180;2024-01-15T11:43:40;2.07;;;0.93;;
14326;SDS011;7247;53.330;-1.180;2024-01-15T11:46:08;3.23;;;1.40;;
14326;SDS011;7247;53.330;-1.180;2024-01-15T11:48:41;2.00;;;1.00;;
14326;SDS011;7247;53.330;-1.180;2024-01-15T11:51:08;2.77;;;1.30;;
14326;SDS011;7247;53.330;-1.180;2024-01-15T11:53:37;4.40;;;1.20;;
14326;SDS011;7247;53.330;-1.180;2024-01-15T11:56:12;3.47;;;1.20;;
14326;SDS011;7247;53.330;-1.180;2024-01-15T11:58:40;2.27;;;0.70;;
14326;SDS011;7247;53.330;-1.180;2024-01-15T12:01:07;2.13;;;1.07;;
14326;SDS011;7247;53.330;-1.180;2024-01-15T12:03:33;4.80;;;1.30;;
14326;SDS011;7247;53.330;-1.180;2024-01-15T12:06:01;2.83;;;1.27;;
14326;SDS011;7247;53.330;-1.180;2024-01-15T12:08:28;2.93;;;1.53;;
14326;SDS011;7247;53.330;-1.180;2024-01-15T12:10:54;2.20;;;1.00;;
14326;SDS011;7247;53.330;-1.180;2024-01-15T12:13:22;2.80;;;1.20;;
14326;SDS011;7247;53.330;-1.180;2024-01-15T12:15:48;2.37;;;1.20;;
14326;SDS011;7247;53.330;-1.180;2024-01-15T12:18:15;4.87;;;1.27;;
14326;SDS011;7247;53.330;-1.180;2024-01-15T12:20:42;4.23;;;1.20;;
14326;SDS011;7247;53.330;-1.180;2024-01-15T12:23:10;3.00;;;1.30;;
14326;SDS011;7247;53.330;-1.180;2024-01-15T12:25:38;2.93;;;1.30;;
14326;SDS011;7247;53.330;-1.180;2024-01-15T12:28:05;7.43;;;1.30;;
14326;SDS011;7247;53.330;-1.180;2024-01-15T12:30:32;5.17;;;1.10;;
14326;SDS011;7247;53.330;-1.180;2024-01-15T12:33:00;2.13;;;0.90;;
14326;SDS011;7247;53.330;-1.180;2024-01-15T12:35:27;2.13;;;1.10;;
14326;SDS011;7247;53.330;-1.180;2024-01-15T12:37:55;4.73;;;1.40;;
14326;SDS011;7247;53.330;-1.180;2024-01-15T12:40:23;4.57;;;1.00;;
14326;SDS011;7247;53.330;-1.180;2024-01-15T12:42:50;3.80;;;1.40;;
14326;SDS011;7247;53.330;-1.180;2024-01-15T12:45:16;3.57;;;1.23;;
14326;SDS011;7247;53.330;-1.180;2024-01-15T12:47:43;4.20;;;1.33;;
14326;SDS011;7247;53.330;-1.180;2024-01-15T12:50:10;2.47;;;1.10;;
14326;SDS011;7247;53.330;-1.180;2024-01-15T12:52:37;2.63;;;1.20;;
14326;SDS011;7247;53.330;-1.180;2024-01-15T12:55:04;3.53;;;1.30;;
14326;SDS011;7247;53.330;-1.180;2024-01-15T12:57:32;3.40;;;1.20;;
14326;SDS011;7247;53.330;-1.180;2024-01-15T12:59:59;4.83;;;1.33;;
14326;SDS011;7247;53.330;-1.180;2024-01-15T13:02:25;2.87;;;1.30;;
14326;SDS011;7247;53.330;-1.180;2024-01-15T13:04:52;4.20;;;1.10;;
14326;SDS011;7247;53.330;-1.180;2024-01-15T13:07:19;3.40;;;1.17;;
14326;SDS011;7247;53.330;-1.180;2024-01-15T13:09:45;5.07;;;1.37;;
14326;SDS011;7247;53.330;-1.180;2024-01-15T13:12:12;1.63;;;1.00;;
14326;SDS011;7247;53.330;-1.180;2024-01-15T13:14:40;2.60;;;1.03;;
14326;SDS011;7247;53.330;-1.180;2024-01-15T13:17:06;5.37;;;1.50;;
14326;SDS011;7247;53.330;-1.180;2024-01-15T13:19:33;3.57;;;1.13;;
14326;SDS011;7247;53.330;-1.180;2024-01-15T13:21:59;10.93;;;1.30;;
14326;SDS011;7247;53.330;-1.180;2024-01-15T13:24:26;2.73;;;1.00;;
14326;SDS011;7247;53.330;-1.180;2024-01-15T13:26:52;3.40;;;1.17;;
14326;SDS011;7247;53.330;-1.180;2024-01-15T13:29:19;8.07;;;1.97;;
14326;SDS011;7247;53.330;-1.180;2024-01-15T13:31:47;3.37;;;1.00;;
14326;SDS011;7247;53.330;-1.180;2024-01-15T13:34:14;1.73;;;1.20;;
14326;SDS011;7247;53.330;-1.180;2024-01-15T13:36:40;3.47;;;1.00;;
14326;SDS011;7247;53.330;-1.180;2024-01-15T13:39:07;4.00;;;1.03;;
14326;SDS011;7247;53.330;-1.180;2024-01-15T13:41:34;3.90;;;1.10;;
14326;SDS011;7247;53.330;-1.180;2024-01-15T13:44:01;4.03;;;1.00;;
14326;SDS011;7247;53.330;-1.180;2024-01-15T13:46:28;2.83;;;1.13;;
14326;SDS011;7247;53.330;-1.180;2024-01-15T13:48:56;4.23;;;1.20;;
14326;SDS011;7247;53.330;-1.180;2024-01-15T13:51:23;5.63;;;1.43;;
14326;SDS011;7247;53.330;-1.180;2024-01-15T13:53:49;5.53;;;1.30;;
14326;SDS011;7247;53.330;-1.180;2024-01-15T13:56:16;4.63;;;1.27;;
14326;SDS011;7247;53.330;-1.180;2024-01-15T13:58:42;5.40;;;1.23;;
14326;SDS011;7247;53.330;-1.180;2024-01-15T14:01:09;2.90;;;1.20;;
14326;SDS011;7247;53.330;-1.180;2024-01-15T14:03:36;3.43;;;1.27;;
14326;SDS011;7247;53.330;-1.180;2024-01-15T14:06:04;4.03;;;1.07;;
14326;SDS011;7247;53.330;-1.180;2024-01-15T14:08:33;4.43;;;1.20;;
14326;SDS011;7247;53.330;-1.180;2024-01-15T14:11:00;2.83;;;1.13;;
14326;SDS011;7247;53.330;-1.180;2024-01-15T14:13:26;4.00;;;1.17;;
14326;SDS011;7247;53.330;-1.180;2024-01-15T14:15:53;4.33;;;1.07;;
14326;SDS011;7247;53.330;-1.180;2024-01-15T14:18:20;3.90;;;1.53;;
14326;SDS011;7247;53.330;-1.180;2024-01-15T14:20:47;4.50;;;1.30;;
14326;SDS011;7247;53.330;-1.180;2024-01-15T14:23:15;6.83;;;1.80;;
14326;SDS011;7247;53.330;-1.180;2024-01-15T14:25:41;6.50;;;2.80;;
14326;SDS011;7247;53.330;-1.180;2024-01-15T14:28:08;4.30;;;1.30;;
14326;SDS011;7247;53.330;-1.180;2024-01-15T14:30:35;3.60;;;1.43;;
14326;SDS011;7247;53.330;-1.180;2024-01-15T14:33:01;2.77;;;1.37;;
14326;SDS011;7247;53.330;-1.180;2024-01-15T14:35:28;5.60;;;1.23;;
14326;SDS011;7247;53.330;-1.180;2024-01-15T14:37:54;5.60;;;1.40;;
14326;SDS011;7247;53.330;-1.180;2024-01-15T14:40:24;9.20;;;1.90;;
14326;SDS011;7247;53.330;-1.180;2024-01-15T14:42:51;2.87;;;1.30;;
14326;SDS011;7247;53.330;-1.180;2024-01-15T14:45:18;4.83;;;1.70;;